Time;durP1;ratioP1;P1;durP2;ratioP2;P2;SDS_P1;SDS_P2;PMS_P1;PMS_P2;Temp;Humidity;BMP_temperature;BMP_pressure;BME280_temperature;BME280_humidity;BME280_pressure;Samples;Min_cycle;Max_cycle;Signal;HPM_P1;HPM_P2
2023/08/23 00:00:08;;;;;;;7.75;3.72;;;;;;;17.60;99.10;101236.56;5049755;28;20043;-83
2023/08/23 00:02:37;;;;;;;6.70;2.95;;;;;;;17.55;99.40;101234.06;5043048;28;20140;-81
2023/08/23 00:05:03;;;;;;;3.40;3.20;;;;;;;17.53;100.00;101238.53;5048464;28;20049;-88
2023/08/23 00:07:30;;;;;;;4.40;4.00;;;;;;;17.51;99.83;101237.72;5048989;28;20657;-83
2023/08/23 00:09:56;;;;;;;7.00;3.17;;;;;;;17.52;99.75;101239.44;5053839;28;20051;-83
2023/08/23 00:12:23;;;;;;;8.85;3.63;;;;;;;17.52;100.00;101244.72;5050608;28;20041;-82
2023/08/23 00:14:49;;;;;;;7.85;4.57;;;;;;;17.49;100.00;101242.19;5045728;28;20037;-82
2023/08/23 00:17:16;;;;;;;3.90;3.42;;;;;;;17.48;100.00;101248.38;5052224;28;20041;-83
2023/08/23 00:19:43;;;;;;;7.03;4.03;;;;;;;17.46;100.00;101248.44;5057255;28;20041;-85
2023/08/23 00:22:09;;;;;;;4.00;3.55;;;;;;;17.44;100.00;101255.56;5040977;28;20038;-82
2023/08/23 00:24:36;;;;;;;4.65;2.60;;;;;;;17.39;100.00;101246.88;5051350;28;20535;-84
2023/08/23 00:27:02;;;;;;;5.15;4.40;;;;;;;17.35;100.00;101246.09;5050502;28;20716;-83
2023/08/23 00:29:29;;;;;;;3.75;3.45;;;;;;;17.33;100.00;101242.59;5051370;28;20120;-83
2023/08/23 00:31:55;;;;;;;5.88;4.70;;;;;;;17.29;100.00;101240.09;5025525;28;20110;-85
2023/08/23 00:34:22;;;;;;;4.68;3.63;;;;;;;17.29;100.00;101245.41;5028915;28;20047;-83
2023/08/23 00:36:48;;;;;;;8.80;5.18;;;;;;;17.25;100.00;101244.59;5012076;28;20041;-86
2023/08/23 00:39:15;;;;;;;10.57;5.20;;;;;;;17.24;100.00;101250.81;5029099;28;20144;-83
2023/08/23 00:41:43;;;;;;;6.55;4.13;;;;;;;17.20;100.00;101247.38;5009735;28;20065;-86
2023/08/23 00:44:09;;;;;;;4.43;3.95;;;;;;;17.17;100.00;101254.53;5049868;28;20536;-86
2023/08/23 00:46:36;;;;;;;4.13;3.85;;;;;;;17.14;100.00;101246.66;5032345;28;20038;-83
2023/08/23 00:49:02;;;;;;;5.13;4.57;;;;;;;17.14;100.00;101244.91;5023930;28;20494;-83
2023/08/23 00:51:30;;;;;;;4.10;3.75;;;;;;;17.11;100.00;101250.25;5023925;28;20112;-84
2023/08/23 00:53:58;;;;;;;10.82;5.28;;;;;;;17.09;100.00;101245.94;5020779;28;20044;-83
2023/08/23 00:56:24;;;;;;;7.93;5.05;;;;;;;17.05;100.00;101250.41;5020799;28;20373;-83
2023/08/23 00:58:51;;;;;;;6.53;4.70;;;;;;;17.06;100.00;101244.22;5028407;28;20507;-86
2023/08/23 01:01:17;;;;;;;5.93;4.47;;;;;;;17.03;100.00;101247.81;4996249;28;20042;-83
2023/08/23 01:03:44;;;;;;;4.75;4.35;;;;;;;17.01;100.00;101249.66;5035595;28;20045;-83
2023/08/23 01:06:30;;;;;;;7.63;6.07;;;;;;;17.02;100.00;101242.56;5020957;28;20061;-83
2023/08/23 01:09:17;;;;;;;6.68;4.93;;;;;;;17.00;100.00;101234.69;5031479;28;20041;-84
2023/08/23 01:11:57;;;;;;;4.80;3.70;;;;;;;16.95;100.00;101235.72;5011241;28;20041;-84
2023/08/23 01:14:47;;;;;;;7.53;5.57;;;;;;;16.90;100.00;101237.59;5029780;28;20488;-83
2023/08/23 01:17:16;;;;;;;4.72;4.18;;;;;;;16.84;100.00;101241.25;5006455;28;20045;-86
2023/08/23 01:19:46;;;;;;;9.48;5.03;;;;;;;16.78;100.00;101244.03;5050386;28;20677;-83
2023/08/23 01:22:24;;;;;;;6.43;5.63;;;;;;;16.72;100.00;101244.22;5020734;28;20044;-83
2023/08/23 01:24:50;;;;;;;7.97;6.60;;;;;;;16.69;100.00;101239.88;5005981;28;20046;-86
2023/08/23 01:27:17;;;;;;;9.70;7.60;;;;;;;16.66;100.00;101245.22;5027819;28;20042;-83
2023/08/23 01:29:45;;;;;;;6.35;5.22;;;;;;;16.63;100.00;101246.16;5003527;28;20045;-86
2023/08/23 01:32:15;;;;;;;6.57;5.47;;;;;;;16.59;100.00;101247.16;5028817;28;20399;-83
2023/08/23 01:34:49;;;;;;;7.35;6.72;;;;;;;16.54;100.00;101242.00;5037157;28;20072;-83
2023/08/23 01:37:18;;;;;;;8.93;6.07;;;;;;;16.51;100.00;101239.41;5008280;28;20049;-86
2023/08/23 01:39:45;;;;;;;11.00;6.65;;;;;;;16.50;100.00;101242.97;5018119;28;20057;-83
2023/08/23 01:42:12;;;;;;;6.38;5.78;;;;;;;16.47;100.00;101245.69;5015195;28;20111;-86
2023/08/23 01:44:43;;;;;;;8.20;5.68;;;;;;;16.46;100.00;101245.72;5022675;28;20049;-82
2023/08/23 01:47:10;;;;;;;5.90;5.25;;;;;;;16.43;100.00;101251.94;5016671;28;20049;-85
2023/08/23 01:49:36;;;;;;;7.00;6.10;;;;;;;16.41;100.00;101245.81;5013134;28;20041;-84
2023/08/23 01:52:03;;;;;;;11.35;6.50;;;;;;;16.36;100.00;101245.94;5014528;28;20042;-82
2023/08/23 01:54:29;;;;;;;8.68;6.30;;;;;;;16.33;100.00;101243.34;4992299;28;20068;-83
2023/08/23 01:56:56;;;;;;;6.60;5.82;;;;;;;16.28;100.00;101241.72;5009584;28;20065;-83
2023/08/23 01:59:23;;;;;;;12.45;8.07;;;;;;;16.21;100.00;101249.78;5034031;28;20046;-86
2023/08/23 02:01:49;;;;;;;11.75;6.80;;;;;;;16.19;100.00;101251.63;5022762;28;20033;-83
2023/08/23 02:04:19;;;;;;;9.70;6.78;;;;;;;16.18;100.00;101254.28;5015345;28;20041;-83
2023/08/23 02:06:46;;;;;;;9.20;6.25;;;;;;;16.16;100.00;101258.72;5019997;28;20045;-82
2023/08/23 02:09:12;;;;;;;8.55;7.72;;;;;;;16.13;100.00;101261.44;5017045;28;20129;-82
2023/08/23 02:11:39;;;;;;;10.02;7.47;;;;;;;16.10;100.00;101261.50;5016177;28;20128;-83
2023/08/23 02:14:05;;;;;;;11.02;7.45;;;;;;;16.07;100.00;101257.16;5013146;28;20084;-85
2023/08/23 02:16:34;;;;;;;6.55;5.85;;;;;;;16.01;100.00;101247.59;5005025;28;20034;-82
2023/08/23 02:19:01;;;;;;;7.95;6.72;;;;;;;15.98;100.00;101260.91;4999376;28;20049;-83
2023/08/23 02:21:27;;;;;;;14.90;7.15;;;;;;;15.93;100.00;101262.75;5028249;28;20056;-83
2023/08/23 02:23:54;;;;;;;8.43;7.05;;;;;;;15.90;100.00;101254.03;5014870;28;20520;-84
2023/08/23 02:26:21;;;;;;;10.30;8.10;;;;;;;15.84;100.00;101255.91;5014874;28;20080;-82
2023/08/23 02:28:48;;;;;;;7.55;6.85;;;;;;;15.81;100.00;101247.16;5017079;28;20108;-82
2023/08/23 02:31:14;;;;;;;7.80;6.57;;;;;;;15.77;100.00;101251.59;5014326;28;20731;-91
2023/08/23 02:33:41;;;;;;;6.90;6.20;;;;;;;15.74;100.00;101238.47;5020664;28;20037;-83
2023/08/23 02:36:07;;;;;;;8.93;8.00;;;;;;;15.72;100.00;101245.56;5062184;28;20487;-90
2023/08/23 02:38:34;;;;;;;8.65;7.47;;;;;;;15.69;100.00;101248.25;5027976;28;20061;-82
2023/08/23 02:41:00;;;;;;;9.43;8.20;;;;;;;15.64;100.00;101244.84;5030889;28;20041;-82
2023/08/23 02:43:27;;;;;;;10.65;7.35;;;;;;;15.62;100.00;101244.88;5065427;28;20506;-85
2023/08/23 02:45:53;;;;;;;8.70;7.82;;;;;;;15.59;100.00;101242.31;5034697;28;20033;-83
2023/08/23 02:48:20;;;;;;;9.20;6.70;;;;;;;15.57;100.00;101232.69;5032085;28;20034;-83
2023/08/23 02:50:46;;;;;;;14.13;9.95;;;;;;;15.55;100.00;101240.63;5053125;28;20168;-83
2023/08/23 02:53:13;;;;;;;11.20;8.07;;;;;;;15.51;100.00;101241.59;5027956;28;20123;-84
2023/08/23 02:55:39;;;;;;;8.75;6.38;;;;;;;15.51;100.00;101244.22;5030913;28;20038;-83
2023/08/23 02:58:06;;;;;;;11.52;8.82;;;;;;;15.46;100.00;101235.53;5030687;28;20044;-84
2023/08/23 03:00:35;;;;;;;7.32;6.63;;;;;;;15.43;100.00;101236.47;5034823;28;20051;-83
2023/08/23 03:03:01;;;;;;;14.45;9.15;;;;;;;15.44;100.00;101235.56;5016161;28;20492;-81
2023/08/23 03:05:28;;;;;;;11.23;8.90;;;;;;;15.42;100.00;101236.50;5021299;28;20052;-83
2023/08/23 03:07:54;;;;;;;8.80;7.78;;;;;;;15.42;100.00;101233.84;5033318;28;20051;-82
2023/08/23 03:10:21;;;;;;;13.13;10.25;;;;;;;15.42;100.00;101231.22;5011632;28;20456;-84
2023/08/23 03:12:47;;;;;;;13.15;9.65;;;;;;;15.37;100.00;101236.59;5056474;28;20063;-84
2023/08/23 03:15:14;;;;;;;10.73;7.85;;;;;;;15.34;100.00;101224.34;5044146;28;20534;-85
2023/08/23 03:17:41;;;;;;;12.95;9.52;;;;;;;15.32;100.00;101227.91;5034207;28;20518;-83
2023/08/23 03:20:08;;;;;;;10.57;7.97;;;;;;;15.31;100.00;101226.16;5034509;28;20063;-86
2023/08/23 03:22:35;;;;;;;11.02;9.05;;;;;;;15.31;100.00;101219.09;5031322;28;20052;-82
2023/08/23 03:25:01;;;;;;;11.05;8.77;;;;;;;15.31;100.00;101223.53;5038340;28;20072;-86
2023/08/23 03:27:28;;;;;;;13.68;9.10;;;;;;;15.31;100.00;101221.75;5034169;28;20045;-84
2023/08/23 03:29:55;;;;;;;10.63;7.88;;;;;;;15.31;100.00;101223.53;5038030;28;20473;-84
2023/08/23 03:32:21;;;;;;;11.85;9.98;;;;;;;15.30;100.00;101227.91;5044571;28;20037;-83
2023/08/23 03:34:48;;;;;;;11.23;8.15;;;;;;;15.30;100.00;101232.34;5037653;28;20390;-83
2023/08/23 03:37:15;;;;;;;11.50;8.82;;;;;;;15.28;100.00;101234.13;5038197;28;20037;-83
2023/08/23 03:39:41;;;;;;;11.05;8.25;;;;;;;15.26;100.00;101230.66;5032805;28;20080;-84
2023/08/23 03:42:08;;;;;;;12.50;8.88;;;;;;;15.25;100.00;101231.56;5039751;28;20055;-85
2023/08/23 03:44:35;;;;;;;11.40;8.85;;;;;;;15.25;100.00;101229.78;5022592;28;20056;-83
2023/08/23 03:47:01;;;;;;;10.65;9.38;;;;;;;15.24;100.00;101224.53;5036039;28;20475;-84
2023/08/23 03:49:29;;;;;;;17.02;10.32;;;;;;;15.19;100.00;101225.50;5031749;28;20477;-88
2023/08/23 03:51:55;;;;;;;15.15;9.15;;;;;;;15.20;100.00;101226.34;5028732;28;20053;-87
2023/08/23 03:54:22;;;;;;;14.95;10.02;;;;;;;15.16;100.00;101230.84;5043635;28;20495;-84
2023/08/23 03:56:49;;;;;;;11.73;9.95;;;;;;;15.15;100.00;101229.09;5065752;28;20090;-83
2023/08/23 03:59:18;;;;;;;14.57;11.50;;;;;;;15.14;100.00;101231.75;5030715;28;20049;-84
2023/08/23 04:01:46;;;;;;;8.75;7.53;;;;;;;15.12;100.00;101231.78;5014043;28;20055;-84
2023/08/23 04:04:17;;;;;;;13.02;10.35;;;;;;;15.12;100.00;101217.72;5043253;28;20045;-83
2023/08/23 04:06:44;;;;;;;13.63;10.68;;;;;;;15.13;100.00;101222.97;5032316;28;20041;-84
2023/08/23 04:09:10;;;;;;;21.45;11.13;;;;;;;15.15;100.00;101225.59;5046269;28;20043;-83
2023/08/23 04:11:37;;;;;;;11.07;9.23;;;;;;;15.15;100.00;101225.59;5028037;28;20045;-83
2023/08/23 04:14:04;;;;;;;11.13;8.50;;;;;;;15.17;100.00;101226.41;5006132;28;20487;-87
2023/08/23 04:16:30;;;;;;;13.82;10.20;;;;;;;15.18;100.00;101228.16;5026797;28;20068;-84
2023/08/23 04:18:57;;;;;;;14.07;10.57;;;;;;;15.19;100.00;101225.50;5036549;28;20037;-86
2023/08/23 04:21:24;;;;;;;11.25;9.32;;;;;;;15.21;100.00;101223.72;5062130;28;20040;-86
2023/08/23 04:23:52;;;;;;;12.05;10.05;;;;;;;15.21;100.00;101218.44;5034484;28;20176;-83
2023/08/23 04:26:19;;;;;;;13.52;10.32;;;;;;;15.24;100.00;101222.78;5027046;28;20131;-84
2023/08/23 04:28:49;;;;;;;12.40;9.85;;;;;;;15.25;100.00;101218.38;5030682;28;20083;-84
2023/08/23 04:31:15;;;;;;;9.50;8.50;;;;;;;15.26;100.00;101226.25;5011531;28;20133;-83
2023/08/23 04:33:43;;;;;;;13.70;10.18;;;;;;;15.31;100.00;101224.38;5022931;28;20040;-84
2023/08/23 04:36:10;;;;;;;13.63;9.43;;;;;;;15.34;100.00;101226.09;5054772;28;20037;-84
2023/08/23 04:38:37;;;;;;;10.35;8.93;;;;;;;15.38;100.00;101222.50;5054703;28;20624;-86
2023/08/23 04:41:05;;;;;;;12.00;9.38;;;;;;;15.39;100.00;101227.72;5035825;28;20059;-86
2023/08/23 04:43:33;;;;;;;14.25;9.32;;;;;;;15.42;100.00;101229.44;5036199;28;20494;-84
2023/08/23 04:46:00;;;;;;;10.93;9.55;;;;;;;15.48;100.00;101228.47;5031780;28;20065;-85
2023/08/23 04:48:26;;;;;;;12.27;9.85;;;;;;;15.53;100.00;101223.97;5038729;28;20032;-82
2023/08/23 04:50:58;;;;;;;15.57;9.95;;;;;;;15.59;100.00;101223.84;5047616;28;20065;-88
2023/08/23 04:53:26;;;;;;;13.93;10.82;;;;;;;15.67;100.00;101226.31;5027669;28;20395;-83
2023/08/23 04:55:58;;;;;;;12.63;9.40;;;;;;;15.70;100.00;101232.38;5063165;28;20085;-85
2023/08/23 04:58:29;;;;;;;14.10;8.98;;;;;;;15.73;100.00;101227.97;5039207;28;20072;-85
2023/08/23 05:01:04;;;;;;;11.98;9.05;;;;;;;15.72;100.00;101229.72;5019141;28;20045;-83
2023/08/23 05:03:36;;;;;;;21.00;9.82;;;;;;;15.76;100.00;101239.34;5038151;28;20071;-89
2023/08/23 05:06:03;;;;;;;15.02;10.30;;;;;;;15.79;100.00;101236.63;5031839;28;20087;-84
2023/08/23 05:08:31;;;;;;;16.70;9.80;;;;;;;15.81;100.00;101226.94;5059284;28;20045;-84
2023/08/23 05:10:58;;;;;;;16.23;9.70;;;;;;;15.84;100.00;101228.66;5044281;28;20049;-84
2023/08/23 05:13:27;;;;;;;16.50;9.80;;;;;;;15.86;100.00;101224.19;5033916;28;20048;-83
2023/08/23 05:15:56;;;;;;;14.70;9.68;;;;;;;15.88;100.00;101225.88;5037877;28;20104;-84
2023/08/23 05:18:23;;;;;;;11.43;8.73;;;;;;;15.90;100.00;101225.00;5035043;28;20111;-84
2023/08/23 05:20:59;;;;;;;12.80;8.15;;;;;;;15.94;100.00;101229.28;5024295;28;20069;-84
2023/08/23 05:23:26;;;;;;;13.25;8.65;;;;;;;15.99;100.00;101240.63;5014760;28;20534;-86
2023/08/23 05:25:54;;;;;;;13.05;9.73;;;;;;;16.03;100.00;101232.63;5027445;28;20318;-83
2023/08/23 05:28:22;;;;;;;13.90;9.05;;;;;;;16.11;100.00;101240.34;5022671;28;20301;-87
2023/08/23 05:30:51;;;;;;;12.10;9.73;;;;;;;16.17;100.00;101234.06;5028679;28;20086;-85
2023/08/23 05:33:17;;;;;;;13.25;10.10;;;;;;;16.20;100.00;101233.97;5028059;28;20052;-85
2023/08/23 05:35:45;;;;;;;12.15;10.35;;;;;;;16.25;100.00;101228.59;5038691;28;20048;-86
2023/08/23 05:38:11;;;;;;;15.48;9.63;;;;;;;16.32;100.00;101232.81;5047954;28;20072;-86
2023/08/23 05:40:38;;;;;;;16.60;10.60;;;;;;;16.37;100.00;101233.59;5032805;28;20669;-85
2023/08/23 05:43:06;;;;;;;14.60;8.98;;;;;;;16.42;100.00;101239.63;5042229;28;20204;-84
2023/08/23 05:45:33;;;;;;;14.90;10.10;;;;;;;16.48;100.00;101244.78;5045229;28;20079;-85
2023/08/23 05:48:00;;;;;;;15.38;10.85;;;;;;;16.56;100.00;101249.00;5059769;28;20116;-84
2023/08/23 05:50:34;;;;;;;13.10;9.55;;;;;;;16.63;100.00;101254.09;5054234;28;20091;-89
2023/08/23 05:53:04;;;;;;;13.52;8.10;;;;;;;16.68;100.00;101260.13;5049110;28;20099;-91
2023/08/23 05:55:31;;;;;;;18.92;10.57;;;;;;;16.75;100.00;101254.69;5034490;28;20596;-86
2023/08/23 05:57:57;;;;;;;10.13;8.23;;;;;;;16.83;100.00;101263.28;5035374;28;20037;-90
2023/08/23 06:00:24;;;;;;;13.80;9.02;;;;;;;16.86;100.00;101257.94;5037875;28;20488;-83
2023/08/23 06:02:51;;;;;;;11.45;8.77;;;;;;;16.94;100.00;101263.06;5022837;28;20087;-84
2023/08/23 06:05:17;;;;;;;17.67;10.50;;;;;;;17.01;100.00;101264.63;5042757;28;20037;-83
2023/08/23 06:07:44;;;;;;;11.65;8.40;;;;;;;17.08;100.00;101268.00;5062454;28;20127;-82
2023/08/23 06:10:11;;;;;;;12.50;7.57;;;;;;;17.18;100.00;101265.06;5054007;28;20109;-86
2023/08/23 06:12:38;;;;;;;12.57;7.82;;;;;;;17.30;100.00;101269.16;5036970;28;20381;-85
2023/08/23 06:15:05;;;;;;;16.35;8.68;;;;;;;17.41;100.00;101257.41;5050462;28;20047;-84
2023/08/23 06:17:32;;;;;;;25.05;10.52;;;;;;;17.54;100.00;101258.81;5030374;28;20520;-82
2023/08/23 06:19:59;;;;;;;11.65;8.18;;;;;;;17.67;100.00;101264.63;5053082;28;20037;-84
2023/08/23 06:22:25;;;;;;;12.30;7.50;;;;;;;17.83;100.00;101268.56;5033621;28;20037;-83
2023/08/23 06:24:52;;;;;;;13.35;6.63;;;;;;;18.03;100.00;101261.84;5060673;28;20044;-84
2023/08/23 06:27:19;;;;;;;9.60;7.28;;;;;;;18.28;100.00;101259.28;5049290;28;20403;-85
2023/08/23 06:29:45;;;;;;;11.55;6.13;;;;;;;18.52;100.00;101260.28;5052818;28;20543;-87
2023/08/23 06:32:12;;;;;;;12.63;7.22;;;;;;;18.72;100.00;101257.88;5048280;28;20041;-84
2023/08/23 06:34:40;;;;;;;9.70;6.35;;;;;;;18.82;100.00;101254.00;5069662;28;20063;-83
2023/08/23 06:37:07;;;;;;;9.68;6.93;;;;;;;18.89;100.00;101258.22;5037647;28;20037;-83
2023/08/23 06:39:34;;;;;;;7.78;5.20;;;;;;;18.94;100.00;101260.72;5060715;28;20453;-87
2023/08/23 06:42:01;;;;;;;12.95;7.85;;;;;;;18.99;100.00;101258.78;5031668;28;20400;-83
2023/08/23 06:44:28;;;;;;;9.65;6.45;;;;;;;19.08;100.00;101265.56;5050071;28;20502;-84
2023/08/23 06:46:54;;;;;;;13.77;7.10;;;;;;;19.23;100.00;101266.78;5035051;28;21089;-86
2023/08/23 06:49:21;;;;;;;12.95;6.55;;;;;;;19.38;99.84;101260.06;5069710;28;20114;-83
2023/08/23 06:51:48;;;;;;;13.90;6.25;;;;;;;19.49;99.32;101264.06;5058130;28;20060;-85
2023/08/23 06:54:14;;;;;;;6.88;5.10;;;;;;;19.59;98.29;101261.94;5018417;28;20048;-84
2023/08/23 06:56:41;;;;;;;8.85;5.78;;;;;;;19.93;97.90;101263.38;5041433;28;20047;-84
2023/08/23 06:59:07;;;;;;;9.15;5.53;;;;;;;20.27;96.19;101264.72;5028849;28;20710;-83
2023/08/23 07:01:34;;;;;;;13.43;7.38;;;;;;;20.42;93.79;101265.88;5044077;28;20118;-87
2023/08/23 07:04:00;;;;;;;10.63;5.78;;;;;;;20.61;93.77;101271.31;5033780;28;20063;-82
2023/08/23 07:06:27;;;;;;;8.25;5.43;;;;;;;20.91;93.10;101265.66;5021841;28;20508;-83
2023/08/23 07:08:54;;;;;;;15.73;5.63;;;;;;;21.10;91.69;101271.03;5033213;28;20508;-83
2023/08/23 07:11:20;;;;;;;13.23;5.97;;;;;;;21.30;90.67;101272.84;5035275;28;20064;-84
2023/08/23 07:13:47;;;;;;;9.20;6.30;;;;;;;21.38;89.55;101269.84;5034001;28;20052;-84
2023/08/23 07:16:13;;;;;;;7.75;5.75;;;;;;;21.42;88.92;101276.78;5043927;28;20099;-84
2023/08/23 07:18:40;;;;;;;13.23;6.75;;;;;;;21.60;88.44;101277.78;5034420;28;20128;-84
2023/08/23 07:21:07;;;;;;;12.00;7.32;;;;;;;21.79;86.74;101290.25;5033592;28;20472;-90
2023/08/23 07:23:34;;;;;;;16.05;7.10;;;;;;;21.81;87.15;101289.25;5037982;28;20151;-82
2023/08/23 07:26:02;;;;;;;11.00;7.35;;;;;;;22.12;86.59;101273.59;5034155;28;20097;-84
2023/08/23 07:28:30;;;;;;;15.05;6.85;;;;;;;22.36;84.02;101276.06;5055392;28;20074;-85
2023/08/23 07:30:57;;;;;;;7.40;5.60;;;;;;;22.55;84.01;101276.88;5037090;28;20049;-87
2023/08/23 07:33:25;;;;;;;10.32;6.63;;;;;;;22.85;82.47;101281.63;5041565;28;20505;-83
2023/08/23 07:36:00;;;;;;;13.60;8.10;;;;;;;23.23;80.22;101288.66;5042195;28;20053;-84
2023/08/23 07:38:28;;;;;;;8.35;6.32;;;;;;;23.61;79.34;101281.28;5034641;28;20049;-82
2023/08/23 07:41:00;;;;;;;9.40;6.07;;;;;;;24.10;76.11;101274.22;5035163;28;20071;-84
2023/08/23 07:43:27;;;;;;;11.23;6.78;;;;;;;24.59;72.43;101286.59;5039659;28;20039;-82
2023/08/23 07:45:58;;;;;;;9.30;6.50;;;;;;;24.69;69.58;101284.28;5028142;28;20041;-84
2023/08/23 07:48:26;;;;;;;7.50;5.20;;;;;;;25.05;72.04;101291.09;5033585;28;20037;-85
2023/08/23 07:50:55;;;;;;;9.75;5.63;;;;;;;25.49;70.05;101286.66;5033140;28;20041;-82
2023/08/23 07:53:23;;;;;;;8.77;5.28;;;;;;;25.54;69.49;101293.47;5034588;28;20045;-86
2023/08/23 07:55:50;;;;;;;7.22;5.38;;;;;;;26.12;67.74;101296.13;5029826;28;20107;-89
2023/08/23 07:58:17;;;;;;;9.48;5.65;;;;;;;26.80;63.43;101296.22;5035908;28;20053;-83
2023/08/23 08:00:43;;;;;;;10.38;5.63;;;;;;;26.58;63.45;101286.88;5030954;28;20051;-84
2023/08/23 08:03:10;;;;;;;6.05;3.75;;;;;;;26.73;63.83;101283.22;5052050;28;20138;-84
2023/08/23 08:05:38;;;;;;;7.28;4.60;;;;;;;27.28;60.65;101285.75;5047206;28;20052;-92
2023/08/23 08:08:06;;;;;;;5.45;3.78;;;;;;;27.86;58.13;101293.38;5042183;28;20070;-83
2023/08/23 08:10:32;;;;;;;6.45;4.93;;;;;;;27.76;54.97;101286.97;5056940;28;20044;-89
2023/08/23 08:12:59;;;;;;;8.13;5.78;;;;;;;27.40;54.38;101290.31;5051545;28;20077;-81
2023/08/23 08:15:26;;;;;;;8.52;4.85;;;;;;;27.23;57.21;101291.47;5047020;28;20068;-82
2023/08/23 08:17:54;;;;;;;7.70;3.83;;;;;;;27.98;54.25;101295.19;5040767;28;20048;-82
2023/08/23 08:20:23;;;;;;;8.05;4.28;;;;;;;28.35;51.97;101297.03;5038329;28;20041;-82
2023/08/23 08:22:50;;;;;;;4.65;3.97;;;;;;;29.01;50.17;101297.47;5015476;28;20056;-90
2023/08/23 08:25:17;;;;;;;6.00;4.10;;;;;;;28.80;49.64;101299.97;5048931;28;20048;-84
2023/08/23 08:27:45;;;;;;;6.90;4.07;;;;;;;28.88;50.40;101304.78;5055014;28;20072;-84
2023/08/23 08:30:12;;;;;;;7.22;4.53;;;;;;;29.02;48.75;101306.41;5042638;28;20136;-82
2023/08/23 08:32:38;;;;;;;7.13;4.35;;;;;;;28.50;48.52;101317.44;5044636;28;20060;-91
2023/08/23 08:35:08;;;;;;;6.85;3.88;;;;;;;27.67;49.78;101318.91;5050293;28;20041;-82
2023/08/23 08:37:35;;;;;;;5.95;4.57;;;;;;;27.55;51.54;101317.09;5037211;28;20048;-85
2023/08/23 08:40:02;;;;;;;5.97;3.92;;;;;;;26.72;54.02;101320.91;5068397;28;20055;-83
2023/08/23 08:42:29;;;;;;;5.00;4.03;;;;;;;26.11;56.14;101323.91;5058118;28;20033;-83
2023/08/23 08:44:57;;;;;;;8.35;4.57;;;;;;;25.55;59.04;101324.69;5058370;28;20042;-82
2023/08/23 08:47:24;;;;;;;6.72;4.80;;;;;;;25.09;61.18;101322.94;5028204;28;20480;-84
2023/08/23 08:49:50;;;;;;;13.32;5.95;;;;;;;25.97;57.42;101323.91;5048057;28;20044;-83
2023/08/23 08:52:20;;;;;;;6.68;5.03;;;;;;;26.73;54.87;101315.44;5043247;28;20057;-86
2023/08/23 08:54:50;;;;;;;6.60;4.88;;;;;;;27.58;51.64;101313.34;5019718;28;20060;-81
2023/08/23 08:57:17;;;;;;;7.57;4.95;;;;;;;28.16;50.56;101319.06;5051161;28;20084;-85
2023/08/23 08:59:45;;;;;;;6.47;4.57;;;;;;;27.91;50.23;101318.13;5054169;28;20107;-85
2023/08/23 09:02:16;;;;;;;7.40;4.93;;;;;;;28.61;48.20;101321.16;5052852;28;20092;-83
2023/08/23 09:04:46;;;;;;;5.05;4.55;;;;;;;28.73;47.13;101320.25;5053551;28;20059;-83
2023/08/23 09:07:13;;;;;;;8.65;4.05;;;;;;;29.68;45.57;101320.13;5046272;28;20040;-86
2023/08/23 09:09:42;;;;;;;5.18;4.68;;;;;;;29.91;43.75;101324.69;5048212;28;20485;-91
2023/08/23 09:12:09;;;;;;;9.00;5.90;;;;;;;28.78;46.45;101314.53;5063036;28;20051;-85
2023/08/23 09:14:35;;;;;;;8.02;5.75;;;;;;;28.17;47.97;101316.28;5047179;28;20083;-81
2023/08/23 09:17:02;;;;;;;4.65;4.25;;;;;;;29.02;47.30;101315.38;5045683;28;20498;-81
2023/08/23 09:19:29;;;;;;;6.80;4.78;;;;;;;30.09;44.74;101316.97;5052305;28;20051;-84
2023/08/23 09:21:55;;;;;;;7.90;5.30;;;;;;;31.06;42.17;101314.34;5048913;28;20048;-84
2023/08/23 09:24:22;;;;;;;5.43;4.18;;;;;;;31.62;40.81;101306.88;5055281;28;20036;-82
2023/08/23 09:26:49;;;;;;;4.65;4.25;;;;;;;30.42;43.19;101318.72;5023783;28;20535;-81
2023/08/23 09:29:15;;;;;;;7.57;4.70;;;;;;;28.97;45.78;101313.97;5050120;28;20386;-83
2023/08/23 09:31:42;;;;;;;7.97;4.97;;;;;;;29.12;46.43;101310.09;5046586;28;20041;-88
2023/08/23 09:34:14;;;;;;;10.63;4.28;;;;;;;30.64;42.49;101311.59;5030710;28;20124;-83
2023/08/23 09:36:41;;;;;;;10.73;4.78;;;;;;;32.23;40.02;101310.50;5045780;28;20978;-86
2023/08/23 09:39:10;;;;;;;7.38;5.70;;;;;;;33.03;38.23;101315.84;5023673;28;20053;-82
2023/08/23 09:41:43;;;;;;;4.72;4.20;;;;;;;33.54;35.26;101313.72;5008447;28;20056;-85
2023/08/23 09:44:11;;;;;;;5.68;4.10;;;;;;;34.15;35.58;101312.31;5011103;28;20049;-82
2023/08/23 09:46:40;;;;;;;4.65;3.47;;;;;;;34.04;35.44;101309.78;5010241;28;20045;-83
2023/08/23 09:49:08;;;;;;;5.50;4.20;;;;;;;32.61;37.10;101306.13;5001394;28;20061;-87
2023/08/23 09:51:38;;;;;;;4.35;3.95;;;;;;;31.38;39.40;101305.31;5023733;28;20389;-82
2023/08/23 09:54:14;;;;;;;5.80;4.30;;;;;;;30.02;41.28;101313.91;5050564;28;20504;-82
2023/08/23 09:56:44;;;;;;;3.30;3.00;;;;;;;30.97;39.72;101318.66;4994313;28;20055;-85
2023/08/23 09:59:11;;;;;;;9.00;3.28;;;;;;;32.56;36.62;101313.81;5013442;28;20055;-85
2023/08/23 10:01:39;;;;;;;6.00;3.17;;;;;;;34.13;34.23;101311.59;5010690;28;20044;-82
2023/08/23 10:04:07;;;;;;;4.57;2.95;;;;;;;34.97;32.32;101303.25;5010400;28;20049;-84
2023/08/23 10:06:35;;;;;;;2.20;2.05;;;;;;;35.27;32.07;101307.41;4996114;28;20044;-88
2023/08/23 10:09:03;;;;;;;2.53;1.90;;;;;;;36.51;30.16;101306.03;5018083;28;20042;-82
2023/08/23 10:11:31;;;;;;;2.75;2.17;;;;;;;37.05;29.41;101301.97;5015465;28;20133;-81
2023/08/23 10:14:00;;;;;;;2.30;2.10;;;;;;;37.13;29.98;101306.56;5003619;28;20049;-82
2023/08/23 10:16:27;;;;;;;3.67;2.63;;;;;;;36.13;30.79;101293.84;5027379;28;20046;-82
2023/08/23 10:18:57;;;;;;;2.58;2.38;;;;;;;33.74;33.38;101299.06;5012492;28;20037;-81
2023/08/23 10:21:27;;;;;;;3.17;1.70;;;;;;;31.70;34.72;101295.38;5020242;28;20042;-83
2023/08/23 10:23:55;;;;;;;1.58;1.48;;;;;;;31.24;35.90;101292.09;4998493;28;20052;-82
2023/08/23 10:26:26;;;;;;;2.60;1.90;;;;;;;31.21;35.54;101292.38;5043674;28;20041;-85
2023/08/23 10:28:54;;;;;;;3.00;1.50;;;;;;;32.44;34.70;101288.72;5005658;28;20050;-84
2023/08/23 10:31:29;;;;;;;1.88;1.63;;;;;;;32.51;32.97;101287.13;5008471;28;20053;-88
2023/08/23 10:34:01;;;;;;;3.05;1.50;;;;;;;31.05;35.43;101282.88;5009682;28;20084;-89
2023/08/23 10:36:31;;;;;;;1.85;1.40;;;;;;;29.78;37.34;101284.34;5012065;28;20053;-85
2023/08/23 10:38:58;;;;;;;4.00;2.38;;;;;;;29.16;38.25;101283.78;5023941;28;20132;-83
2023/08/23 10:41:29;;;;;;;3.65;1.90;;;;;;;28.99;39.25;101285.94;5008426;28;20054;-89
2023/08/23 10:43:56;;;;;;;2.88;1.90;;;;;;;30.87;36.50;101273.63;5006716;28;20049;-87
2023/08/23 10:46:23;;;;;;;4.18;1.90;;;;;;;33.08;33.02;101271.00;5007782;28;20056;-82
2023/08/23 10:48:52;;;;;;;2.83;2.13;;;;;;;33.89;31.39;101269.56;5006413;28;20129;-82
2023/08/23 10:51:18;;;;;;;2.10;1.90;;;;;;;32.73;33.01;101266.22;5010098;28;20060;-83
2023/08/23 10:53:45;;;;;;;3.58;1.50;;;;;;;30.89;36.31;101277.91;4990159;28;20080;-88
2023/08/23 10:56:13;;;;;;;2.85;1.70;;;;;;;29.73;38.43;101271.22;5003166;28;20034;-85
2023/08/23 10:58:40;;;;;;;3.53;1.88;;;;;;;28.82;39.88;101264.81;5006300;28;20499;-83
2023/08/23 11:01:06;;;;;;;7.10;2.08;;;;;;;28.22;41.41;101259.41;4997082;28;20049;-82
2023/08/23 11:03:34;;;;;;;3.00;1.50;;;;;;;27.98;41.11;101262.91;5006779;28;20042;-84
2023/08/23 11:06:02;;;;;;;3.85;1.48;;;;;;;29.25;38.71;101269.56;5006284;28;20046;-83
2023/08/23 11:08:28;;;;;;;1.27;1.13;;;;;;;30.80;36.21;101265.19;5010931;28;20120;-82
2023/08/23 11:10:55;;;;;;;3.83;1.30;;;;;;;31.57;34.16;101254.97;5008105;28;20077;-89
2023/08/23 11:13:25;;;;;;;3.03;1.05;;;;;;;31.10;35.30;101258.16;4994195;28;20496;-84
2023/08/23 11:15:52;;;;;;;2.05;1.20;;;;;;;31.33;34.44;101259.69;5017703;28;20037;-84
2023/08/23 11:18:19;;;;;;;1.90;1.40;;;;;;;32.93;32.41;101256.16;4991754;28;20048;-81